Time;durP1;ratioP1;P1;durP2;ratioP2;P2;SDS_P1;SDS_P2;PMS_P1;PMS_P2;Temp;Humidity;BMP_temperature;BMP_pressure;BME280_temperature;BME280_humidity;BME280_pressure;Samples;Min_cycle;Max_cycle;Signal;HPM_P1;HPM_P2
2023/03/05 00:02:13;;;;;;;4.13;1.67;;;;;;;-0.94;100.00;100697.94;5062673;28;20661;-79
2023/03/05 00:04:40;;;;;;;5.10;2.50;;;;;;;-0.86;100.00;100696.41;5045740;28;20103;-79
2023/03/05 00:07:11;;;;;;;3.07;1.40;;;;;;;-0.91;100.00;100699.75;5043331;28;20058;-79
2023/03/05 00:09:37;;;;;;;5.63;1.90;;;;;;;-0.90;100.00;100696.31;5047740;28;20047;-79
2023/03/05 00:12:05;;;;;;;4.90;1.80;;;;;;;-0.89;100.00;100695.47;5059273;28;20063;-79
2023/03/05 00:14:38;;;;;;;3.03;1.57;;;;;;;-0.85;100.00;100694.69;5056268;28;20048;-79
2023/03/05 00:17:08;;;;;;;2.10;1.80;;;;;;;-0.84;100.00;100688.69;5060819;28;20040;-79
2023/03/05 00:19:35;;;;;;;3.63;2.00;;;;;;;-0.80;100.00;100685.31;5063411;28;20111;-79
2023/03/05 00:22:02;;;;;;;3.23;1.90;;;;;;;-0.77;100.00;100680.22;5043462;28;20544;-79
2023/03/05 00:24:29;;;;;;;3.17;1.70;;;;;;;-0.76;100.00;100668.09;5062136;28;20043;-79
2023/03/05 00:26:57;;;;;;;3.03;1.60;;;;;;;-0.80;100.00;100669.75;5088976;28;20029;-79
2023/03/05 00:29:27;;;;;;;4.03;2.10;;;;;;;-0.84;100.00;100660.16;5088531;28;20066;-78
2023/03/05 00:31:57;;;;;;;3.27;1.77;;;;;;;-0.89;100.00;100656.56;5049949;28;20066;-79
2023/03/05 00:34:28;;;;;;;2.37;1.70;;;;;;;-0.75;100.00;100655.22;5040477;28;20126;-79
2023/03/05 00:36:57;;;;;;;2.08;1.60;;;;;;;-0.65;100.00;100659.78;5050860;28;20040;-79
2023/03/05 00:39:24;;;;;;;3.10;1.80;;;;;;;-0.63;100.00;100655.50;5059088;28;20056;-78
2023/03/05 00:41:53;;;;;;;2.67;1.47;;;;;;;-0.69;100.00;100647.56;5054606;28;20045;-79
2023/03/05 00:44:20;;;;;;;6.57;2.87;;;;;;;-0.56;100.00;100648.75;5035923;28;20060;-78
2023/03/05 00:46:47;;;;;;;3.27;1.60;;;;;;;-0.64;100.00;100640.78;5058958;28;20032;-79
2023/03/05 00:49:14;;;;;;;4.73;2.70;;;;;;;-0.69;100.00;100634.59;5057891;28;21635;-79
2023/03/05 00:51:41;;;;;;;5.80;3.17;;;;;;;-0.72;100.00;100633.63;5037438;28;20042;-78
2023/03/05 00:54:08;;;;;;;4.97;2.50;;;;;;;-0.65;100.00;100630.38;5052337;28;20048;-78
2023/03/05 00:56:37;;;;;;;5.17;2.37;;;;;;;-0.65;100.00;100612.19;5058976;28;20078;-79
2023/03/05 00:59:10;;;;;;;3.30;2.13;;;;;;;-0.77;100.00;100617.06;5058989;28;20044;-79
2023/03/05 01:01:39;;;;;;;4.40;1.67;;;;;;;-0.74;100.00;100612.84;5051009;28;20048;-79
2023/03/05 01:04:07;;;;;;;2.70;1.47;;;;;;;-0.70;100.00;100604.28;5044748;28;20127;-81
2023/03/05 01:06:34;;;;;;;3.13;1.50;;;;;;;-0.68;100.00;100601.72;5055249;28;20040;-81
2023/03/05 01:09:01;;;;;;;2.63;2.03;;;;;;;-0.68;100.00;100599.13;5056946;28;20075;-82
2023/03/05 01:11:28;;;;;;;3.43;1.77;;;;;;;-0.64;100.00;100590.59;5057480;28;20053;-82
2023/03/05 01:13:55;;;;;;;2.80;1.70;;;;;;;-0.59;100.00;100591.56;5022117;28;20033;-82
2023/03/05 01:16:22;;;;;;;3.90;1.97;;;;;;;-0.64;100.00;100586.28;5061312;28;20043;-82
2023/03/05 01:18:52;;;;;;;3.60;1.83;;;;;;;-0.66;100.00;100587.09;5051252;28;20905;-82
2023/03/05 01:21:20;;;;;;;4.53;1.70;;;;;;;-0.66;100.00;100575.00;5061103;28;20036;-81
2023/03/05 01:23:47;;;;;;;5.00;1.97;;;;;;;-0.63;100.00;100577.66;5040564;28;20051;-82
2023/03/05 01:26:17;;;;;;;4.23;1.80;;;;;;;-0.61;100.00;100568.19;5025431;28;20098;-81
2023/03/05 01:28:44;;;;;;;5.00;1.90;;;;;;;-0.53;100.00;100570.09;5048986;28;20135;-82
2023/03/05 01:31:10;;;;;;;5.57;2.07;;;;;;;-0.60;100.00;100562.16;5034486;28;20075;-82
2023/03/05 01:33:38;;;;;;;5.07;1.93;;;;;;;-0.59;100.00;100563.94;5027519;28;20409;-82
2023/03/05 01:36:15;;;;;;;3.43;2.23;;;;;;;-0.61;100.00;100559.53;5049564;28;20039;-83
2023/03/05 01:38:48;;;;;;;3.70;2.20;;;;;;;-0.62;100.00;100562.97;5035335;28;20404;-82
2023/03/05 01:41:16;;;;;;;5.50;3.03;;;;;;;-0.49;100.00;100553.75;5048172;28;20114;-82
2023/03/05 01:43:49;;;;;;;8.63;4.13;;;;;;;-0.48;100.00;100546.00;5051035;28;20043;-83
2023/03/05 01:46:28;;;;;;;8.60;4.20;;;;;;;-0.35;100.00;100544.53;5035339;28;20076;-82
2023/03/05 01:49:18;;;;;;;11.10;4.33;;;;;;;-0.38;100.00;100545.34;5053739;28;20040;-83
2023/03/05 01:52:08;;;;;;;9.93;4.90;;;;;;;-0.24;100.00;100537.88;5038279;28;20052;-81
2023/03/05 01:54:42;;;;;;;7.17;4.20;;;;;;;-0.18;100.00;100532.78;5082307;28;20036;-82
2023/03/05 01:57:31;;;;;;;8.33;3.63;;;;;;;0.08;100.00;100532.44;5028407;28;20072;-82
2023/03/05 02:00:09;;;;;;;8.53;3.70;;;;;;;-0.01;100.00;100527.94;5060875;28;20035;-81
2023/03/05 02:02:36;;;;;;;6.37;3.70;;;;;;;-0.03;100.00;100533.09;5027727;28;20040;-82
2023/03/05 02:05:07;;;;;;;9.63;4.03;;;;;;;0.08;100.00;100525.53;5054198;28;20398;-81
2023/03/05 02:07:36;;;;;;;8.57;3.30;;;;;;;0.11;100.00;100540.31;5053375;28;20396;-81
2023/03/05 02:10:15;;;;;;;8.73;3.67;;;;;;;0.10;100.00;100533.38;5053274;28;20048;-81
2023/03/05 02:12:43;;;;;;;11.50;3.30;;;;;;;0.24;100.00;100530.16;5050904;28;20040;-80
2023/03/05 02:15:11;;;;;;;9.07;3.43;;;;;;;0.24;100.00;100524.97;5032270;28;20040;-81
2023/03/05 02:17:38;;;;;;;9.50;3.20;;;;;;;0.44;100.00;100520.16;5044588;28;20386;-81
2023/03/05 02:20:11;;;;;;;9.73;3.50;;;;;;;0.35;100.00;100525.19;5039043;28;20501;-81
2023/03/05 02:22:38;;;;;;;10.20;3.30;;;;;;;0.36;100.00;100524.34;5049026;28;20054;-81
2023/03/05 02:25:22;;;;;;;7.80;4.03;;;;;;;0.45;100.00;100515.84;5035374;28;20046;-80
2023/03/05 02:28:12;;;;;;;6.80;2.57;;;;;;;0.44;100.00;100512.38;5044734;28;20032;-81
2023/03/05 02:30:41;;;;;;;10.60;3.67;;;;;;;0.43;100.00;100513.22;5026067;28;20497;-82
2023/03/05 02:33:13;;;;;;;10.43;3.43;;;;;;;0.30;100.00;100516.44;5033269;28;20131;-81
2023/03/05 02:35:42;;;;;;;7.57;3.97;;;;;;;0.45;100.00;100505.44;5052162;28;20105;-82
2023/03/05 02:38:10;;;;;;;6.87;3.30;;;;;;;0.36;100.00;100502.69;5026094;28;20036;-81
2023/03/05 02:40:37;;;;;;;8.13;3.07;;;;;;;0.24;100.00;100500.72;5031554;28;20333;-81
2023/03/05 02:43:04;;;;;;;3.83;1.93;;;;;;;0.28;100.00;100505.13;5052768;28;20515;-80
2023/03/05 02:45:34;;;;;;;6.03;1.93;;;;;;;0.30;100.00;100487.84;5033799;28;20044;-82
2023/03/05 02:48:01;;;;;;;6.80;2.70;;;;;;;0.44;100.00;100493.31;5028115;28;20029;-82
2023/03/05 02:50:28;;;;;;;9.87;3.00;;;;;;;0.34;100.00;100487.06;5040660;28;20044;-81
2023/03/05 02:52:54;;;;;;;7.03;2.67;;;;;;;0.35;100.00;100482.75;5047404;28;20058;-81
2023/03/05 02:55:21;;;;;;;7.20;1.83;;;;;;;0.27;100.00;100490.41;5027214;28;20502;-81
2023/03/05 02:57:48;;;;;;;6.43;2.50;;;;;;;0.37;100.00;100488.84;5039407;28;20400;-80
2023/03/05 03:00:15;;;;;;;6.73;2.77;;;;;;;0.40;100.00;100487.16;5053397;28;20515;-81
2023/03/05 03:02:41;;;;;;;6.27;2.00;;;;;;;0.43;99.95;100484.63;5067075;28;20094;-81
2023/03/05 03:05:08;;;;;;;8.73;2.33;;;;;;;0.38;99.90;100481.06;5042275;28;20642;-81
2023/03/05 03:07:35;;;;;;;6.10;3.07;;;;;;;0.26;100.00;100480.84;5058584;28;20058;-80
2023/03/05 03:10:05;;;;;;;6.07;2.03;;;;;;;0.39;99.68;100474.13;5040473;28;20128;-80
2023/03/05 03:12:39;;;;;;;5.30;1.90;;;;;;;0.41;98.02;100478.50;5056424;28;20068;-81
2023/03/05 03:15:06;;;;;;;3.85;2.05;;;;;;;0.57;95.27;100469.25;5071603;28;20047;-80
2023/03/05 03:17:34;;;;;;;6.77;2.10;;;;;;;0.53;96.53;100463.13;5042044;28;20051;-81
2023/03/05 03:20:03;;;;;;;6.63;2.10;;;;;;;0.41;96.90;100464.63;5039071;28;20040;-81
2023/03/05 03:22:30;;;;;;;7.37;2.50;;;;;;;0.49;95.87;100466.53;5093405;23;20690;-81
2023/03/05 03:24:56;;;;;;;6.03;1.97;;;;;;;0.46;95.54;100468.22;5074289;28;20044;-79
2023/03/05 03:27:23;;;;;;;8.33;1.97;;;;;;;0.59;92.48;100462.38;5076839;28;20554;-81
2023/03/05 03:29:50;;;;;;;6.03;1.90;;;;;;;0.59;93.32;100462.38;5086999;28;20032;-81
2023/03/05 03:32:16;;;;;;;6.63;2.07;;;;;;;0.48;93.58;100459.56;5077467;28;20525;-81
2023/03/05 03:34:43;;;;;;;7.33;2.10;;;;;;;0.52;92.92;100455.31;5049173;28;20097;-80
2023/03/05 03:37:10;;;;;;;6.57;1.60;;;;;;;0.51;93.48;100451.84;5082396;28;20406;-80
2023/03/05 03:39:36;;;;;;;4.87;2.33;;;;;;;0.55;92.53;100451.03;5081116;28;20382;-79
2023/03/05 03:42:03;;;;;;;8.53;2.33;;;;;;;0.54;94.09;100448.41;5074275;28;20044;-81
2023/03/05 03:44:30;;;;;;;5.10;2.27;;;;;;;0.53;93.41;100444.94;5077669;28;20040;-81
2023/03/05 03:46:57;;;;;;;8.10;2.17;;;;;;;0.54;91.00;100436.28;5061285;28;20053;-79
2023/03/05 03:49:25;;;;;;;4.63;2.07;;;;;;;0.43;93.12;100437.84;5063387;28;20081;-80
2023/03/05 03:51:57;;;;;;;6.47;1.90;;;;;;;0.47;93.70;100438.75;5066912;28;20044;-80
2023/03/05 03:54:23;;;;;;;5.33;2.00;;;;;;;0.47;93.21;100431.84;5050547;28;20115;-80
2023/03/05 03:56:50;;;;;;;5.37;2.40;;;;;;;0.44;93.17;100433.53;5043909;28;20036;-80
2023/03/05 03:59:17;;;;;;;6.27;1.90;;;;;;;0.52;91.59;100426.72;5054189;28;20043;-81
2023/03/05 04:01:43;;;;;;;7.77;2.13;;;;;;;0.55;91.99;100424.16;5050435;28;20492;-80
2023/03/05 04:04:12;;;;;;;5.10;2.67;;;;;;;0.63;92.74;100425.16;5067717;28;20113;-80
2023/03/05 04:06:39;;;;;;;5.03;3.40;;;;;;;0.49;92.08;100422.34;5059176;28;20420;-80
2023/03/05 04:09:07;;;;;;;13.03;1.97;;;;;;;0.55;93.44;100427.63;5077912;28;20055;-81
2023/03/05 04:11:35;;;;;;;4.97;2.63;;;;;;;0.46;93.40;100424.91;5044631;28;20048;-80
2023/03/05 04:14:03;;;;;;;4.33;2.20;;;;;;;0.65;91.89;100415.66;5062274;28;20039;-80
2023/03/05 04:16:29;;;;;;;5.73;2.40;;;;;;;0.68;90.48;100413.13;5028803;28;20059;-81
2023/03/05 04:18:56;;;;;;;3.60;2.07;;;;;;;0.67;90.81;100410.47;5052955;28;20039;-80
2023/03/05 04:21:23;;;;;;;6.17;3.30;;;;;;;0.56;93.36;100413.78;5058468;28;20044;-81
2023/03/05 04:23:49;;;;;;;5.37;1.70;;;;;;;0.62;92.58;100414.75;5056366;28;20044;-80
2023/03/05 04:26:16;;;;;;;4.80;1.70;;;;;;;0.62;93.52;100406.94;5068529;28;20132;-81
2023/03/05 04:28:43;;;;;;;4.20;1.80;;;;;;;0.55;94.08;100408.56;5061150;28;20043;-79
2023/03/05 04:31:09;;;;;;;7.30;2.40;;;;;;;0.44;95.94;100404.94;5044635;28;20041;-80
2023/03/05 04:33:36;;;;;;;5.17;1.80;;;;;;;0.57;95.61;100409.47;5067990;28;20047;-80
2023/03/05 04:36:03;;;;;;;8.67;2.10;;;;;;;0.69;93.62;100401.00;5052985;28;20464;-81
2023/03/05 04:38:30;;;;;;;7.03;1.80;;;;;;;0.59;95.11;100405.19;5064161;28;20045;-82
2023/03/05 04:40:56;;;;;;;6.43;1.50;;;;;;;0.61;95.42;100389.63;5075717;28;20043;-82
2023/03/05 04:43:23;;;;;;;5.60;2.30;;;;;;;0.55;95.03;100398.19;5085996;28;20044;-81
2023/03/05 04:45:50;;;;;;;6.23;2.00;;;;;;;0.48;96.87;100398.94;5060072;28;20036;-81
2023/03/05 04:48:17;;;;;;;3.43;1.67;;;;;;;0.44;97.59;100397.16;5079345;28;20524;-81
2023/03/05 04:50:44;;;;;;;6.60;1.73;;;;;;;0.47;97.69;100387.66;5094250;27;20055;-80
2023/03/05 04:53:11;;;;;;;6.50;1.70;;;;;;;0.41;98.50;100392.75;5047814;28;20047;-79
2023/03/05 04:55:37;;;;;;;6.87;2.23;;;;;;;0.55;94.88;100378.25;5078497;28;20067;-80
2023/03/05 04:58:04;;;;;;;11.50;2.20;;;;;;;0.67;95.38;100376.69;5044091;28;20040;-80
2023/03/05 05:00:30;;;;;;;4.40;1.40;;;;;;;0.54;96.72;100373.91;5085430;28;20040;-80
2023/03/05 05:02:57;;;;;;;6.70;1.90;;;;;;;0.53;98.40;100379.97;5080343;28;20040;-80
2023/03/05 05:05:25;;;;;;;6.07;2.87;;;;;;;0.60;96.57;100369.66;5071153;28;20036;-82
2023/03/05 05:07:56;;;;;;;5.77;2.27;;;;;;;0.69;96.70;100380.19;5045404;28;20048;-80
2023/03/05 05:10:23;;;;;;;5.10;1.90;;;;;;;0.62;95.30;100368.81;5054505;28;20040;-81
2023/03/05 05:12:50;;;;;;;7.20;1.60;;;;;;;0.64;95.54;100374.91;5058467;28;20044;-80
2023/03/05 05:15:17;;;;;;;8.77;2.43;;;;;;;0.61;96.53;100368.81;5054682;28;20041;-81
2023/03/05 05:17:44;;;;;;;3.90;2.10;;;;;;;0.76;95.21;100369.91;5050442;28;20044;-81
2023/03/05 05:20:13;;;;;;;3.77;1.67;;;;;;;0.56;97.07;100361.81;5071222;28;20044;-81
2023/03/05 05:22:40;;;;;;;5.20;2.23;;;;;;;0.67;97.20;100374.06;5071065;28;20040;-81
2023/03/05 05:25:06;;;;;;;4.30;1.77;;;;;;;0.66;96.33;100370.59;5056117;28;20044;-82
2023/03/05 05:27:35;;;;;;;6.37;1.90;;;;;;;0.71;98.25;100362.88;5058494;28;20055;-83
2023/03/05 05:30:03;;;;;;;6.00;1.80;;;;;;;0.70;97.05;100371.53;5083157;28;20033;-81
2023/03/05 05:32:29;;;;;;;3.93;1.70;;;;;;;0.73;98.31;100363.78;5098685;28;20040;-83
2023/03/05 05:34:57;;;;;;;5.20;2.27;;;;;;;0.69;98.94;100372.41;5072029;28;20082;-82
2023/03/05 05:37:24;;;;;;;6.70;2.03;;;;;;;0.68;98.37;100370.66;5078660;28;20051;-82
2023/03/05 05:39:51;;;;;;;5.63;2.17;;;;;;;0.80;97.70;100369.09;5088638;28;20098;-82
2023/03/05 05:42:19;;;;;;;3.70;1.70;;;;;;;0.68;97.67;100355.06;5063631;28;20039;-83
2023/03/05 05:44:46;;;;;;;5.63;2.20;;;;;;;0.53;99.14;100364.38;5071789;28;20673;-82
2023/03/05 05:47:14;;;;;;;6.23;1.60;;;;;;;0.71;98.54;100362.88;5049046;28;20109;-84
2023/03/05 05:49:40;;;;;;;3.63;1.73;;;;;;;0.67;98.36;100358.47;5074963;28;20066;-82
2023/03/05 05:52:07;;;;;;;4.67;2.00;;;;;;;0.80;95.36;100368.22;5052427;28;20041;-82
2023/03/05 05:54:34;;;;;;;5.23;2.00;;;;;;;0.77;96.01;100368.19;5094884;28;20093;-82
2023/03/05 05:57:00;;;;;;;6.27;1.70;;;;;;;0.64;98.09;100371.44;5069077;28;20040;-80
2023/03/05 05:59:27;;;;;;;6.90;2.03;;;;;;;0.74;97.79;100370.72;5044248;28;20028;-80
2023/03/05 06:01:54;;;;;;;6.43;1.80;;;;;;;0.59;96.83;100368.78;5069222;28;20066;-81
2023/03/05 06:04:21;;;;;;;4.90;2.13;;;;;;;0.68;97.29;100368.06;5068188;28;20064;-79
2023/03/05 06:06:47;;;;;;;4.50;1.43;;;;;;;0.60;99.04;100362.75;5087211;28;20036;-81
2023/03/05 06:09:14;;;;;;;5.23;1.67;;;;;;;0.77;97.93;100368.19;5058014;28;20039;-82
2023/03/05 06:11:41;;;;;;;6.00;1.97;;;;;;;0.69;97.99;100377.59;5067774;28;20072;-81
2023/03/05 06:14:10;;;;;;;3.57;1.80;;;;;;;0.64;97.39;100372.31;5067129;28;20059;-80
2023/03/05 06:16:37;;;;;;;4.10;1.77;;;;;;;0.74;96.63;100370.72;5060606;28;20040;-81
2023/03/05 06:19:04;;;;;;;5.43;1.60;;;;;;;0.77;97.06;100373.38;5053256;28;20044;-80
2023/03/05 06:21:31;;;;;;;6.87;1.67;;;;;;;0.73;96.27;100377.66;5051855;28;20040;-80
2023/03/05 06:23:58;;;;;;;7.80;2.03;;;;;;;0.73;97.95;100368.97;5058944;28;20032;-80
2023/03/05 06:26:24;;;;;;;6.13;1.60;;;;;;;0.68;98.09;100374.13;5084212;28;20047;-80
2023/03/05 06:28:51;;;;;;;6.73;2.00;;;;;;;0.67;99.24;100374.06;5049925;28;20062;-79
2023/03/05 06:31:24;;;;;;;4.33;1.57;;;;;;;0.79;97.29;100362.16;5068607;28;20035;-81
2023/03/05 06:33:53;;;;;;;4.43;1.53;;;;;;;0.70;97.86;100371.53;5078785;28;20067;-80
2023/03/05 06:36:21;;;;;;;6.33;1.63;;;;;;;0.68;99.33;100373.25;5084601;28;20047;-79
2023/03/05 06:38:48;;;;;;;3.23;2.23;;;;;;;0.86;97.77;100376.13;5064921;28;20036;-80
2023/03/05 06:41:21;;;;;;;5.83;2.10;;;;;;;0.84;95.73;100370.91;5085666;28;20036;-80
2023/03/05 06:43:48;;;;;;;7.87;1.90;;;;;;;0.77;96.70;100373.38;5040832;28;20644;-82
2023/03/05 06:46:36;;;;;;;9.53;1.53;;;;;;;0.78;98.77;100370.81;5054224;28;20044;-79
2023/03/05 06:49:03;;;;;;;9.13;2.10;;;;;;;0.76;96.91;100372.53;5053619;28;20036;-80
2023/03/05 06:51:32;;;;;;;5.90;1.87;;;;;;;0.72;98.30;100373.31;5081193;28;20043;-81
2023/03/05 06:54:02;;;;;;;3.53;1.50;;;;;;;0.88;98.47;100366.59;5069721;28;20033;-81
2023/03/05 06:56:28;;;;;;;6.80;2.43;;;;;;;0.85;95.70;100371.78;5072743;28;20067;-80
2023/03/05 06:58:56;;;;;;;3.80;2.07;;;;;;;1.00;94.69;100377.16;5077294;28;20074;-80
2023/03/05 07:01:22;;;;;;;5.60;1.43;;;;;;;0.95;96.38;100373.66;5045571;28;20072;-78
2023/03/05 07:03:53;;;;;;;6.00;1.70;;;;;;;1.00;97.22;100371.97;5073599;28;20044;-80
2023/03/05 07:06:20;;;;;;;5.87;2.13;;;;;;;0.90;97.32;100374.41;5074039;28;20036;-81
2023/03/05 07:08:47;;;;;;;4.30;1.87;;;;;;;1.03;96.03;100385.03;5085556;28;20032;-80
2023/03/05 07:11:16;;;;;;;6.50;2.13;;;;;;;1.08;94.35;100385.94;5057761;28;20048;-82
2023/03/05 07:13:45;;;;;;;31.47;13.50;;;;;;;1.06;95.74;100376.38;5082188;28;20040;-80
2023/03/05 07:16:17;;;;;;;12.23;5.10;;;;;;;1.12;94.48;100392.94;5088767;28;20086;-80
2023/03/05 07:18:44;;;;;;;10.37;3.70;;;;;;;1.10;92.77;100384.25;5071453;28;20493;-80
2023/03/05 07:21:16;;;;;;;15.53;5.07;;;;;;;1.07;93.08;100383.31;5055343;28;20098;-79
2023/03/05 07:23:43;;;;;;;12.30;5.60;;;;;;;1.09;95.57;100387.72;5047255;28;20127;-80
2023/03/05 07:26:11;;;;;;;6.77;3.13;;;;;;;1.11;95.87;100385.13;5074166;28;20039;-79
2023/03/05 07:28:38;;;;;;;8.80;3.73;;;;;;;1.19;95.70;100386.09;5070739;28;21336;-81
2023/03/05 07:31:07;;;;;;;4.17;2.20;;;;;;;1.36;93.87;100392.41;5048628;28;20081;-82
2023/03/05 07:33:35;;;;;;;23.37;11.53;;;;;;;1.52;91.08;100390.84;5056624;28;20052;-82
2023/03/05 07:36:04;;;;;;;13.27;5.70;;;;;;;1.50;93.11;100391.66;5074687;28;20044;-83
2023/03/05 07:38:30;;;;;;;5.33;2.20;;;;;;;1.64;92.55;100382.31;5048752;28;20040;-81
2023/03/05 07:41:08;;;;;;;7.40;1.97;;;;;;;1.69;91.72;100384.13;5088890;28;20054;-81
2023/03/05 07:43:36;;;;;;;3.67;1.50;;;;;;;1.69;90.49;100386.72;5080417;28;20032;-80
2023/03/05 07:46:04;;;;;;;5.00;1.83;;;;;;;1.74;87.38;100381.53;5056688;28;20099;-80
2023/03/05 07:48:31;;;;;;;7.90;1.90;;;;;;;1.73;87.19;100387.59;5058204;28;20031;-82
2023/03/05 07:51:06;;;;;;;5.20;2.13;;;;;;;1.69;86.83;100388.44;5053079;28;20037;-81
2023/03/05 07:53:33;;;;;;;4.40;2.13;;;;;;;1.63;86.73;100390.97;5075010;28;20051;-81
2023/03/05 07:56:00;;;;;;;5.23;2.17;;;;;;;1.66;86.15;100391.88;5074654;28;20089;-82
2023/03/05 07:58:26;;;;;;;5.90;1.30;;;;;;;1.24;85.06;100396.56;5077608;28;20105;-80
2023/03/05 08:00:53;;;;;;;4.73;1.90;;;;;;;1.34;87.42;100393.22;5083167;28;20040;-82
2023/03/05 08:03:20;;;;;;;3.47;1.67;;;;;;;1.29;87.15;100392.31;5077293;28;20032;-82
2023/03/05 08:05:46;;;;;;;4.03;1.77;;;;;;;1.35;87.95;100401.06;5081911;28;20032;-81
2023/03/05 08:08:13;;;;;;;5.27;1.80;;;;;;;1.40;85.44;100394.16;5075621;28;20067;-81
2023/03/05 08:10:40;;;;;;;2.67;1.50;;;;;;;1.24;85.39;100387.03;5038431;28;20109;-81
2023/03/05 08:13:06;;;;;;;5.97;2.20;;;;;;;1.21;88.08;100391.31;5046959;28;20033;-82
2023/03/05 08:15:33;;;;;;;6.93;2.07;;;;;;;1.32;87.46;100403.59;5061076;28;20042;-81
2023/03/05 08:18:00;;;;;;;4.93;1.80;;;;;;;1.39;87.88;100400.22;5078260;28;20043;-83
2023/03/05 08:20:26;;;;;;;4.20;2.20;;;;;;;1.40;87.39;100404.59;5040871;28;20528;-78
2023/03/05 08:22:53;;;;;;;8.43;1.60;;;;;;;1.21;86.48;100396.53;5071374;28;20358;-79
2023/03/05 08:25:23;;;;;;;2.60;1.20;;;;;;;1.16;85.88;100396.47;5058494;28;20040;-79
2023/03/05 08:27:50;;;;;;;4.30;1.40;;;;;;;1.29;85.94;100403.59;5071096;28;20039;-78
2023/03/05 08:30:18;;;;;;;6.43;1.40;;;;;;;1.22;86.60;100391.34;5070266;28;20566;-80
2023/03/05 08:32:45;;;;;;;7.20;2.33;;;;;;;1.04;86.13;100402.38;5081592;28;21533;-78
2023/03/05 08:35:12;;;;;;;3.73;1.53;;;;;;;1.40;86.54;100398.50;5080902;28;20075;-79
2023/03/05 08:37:38;;;;;;;3.53;1.53;;;;;;;1.47;86.53;100400.34;5085644;28;20043;-78
2023/03/05 08:40:06;;;;;;;3.87;1.33;;;;;;;1.46;88.15;100395.97;5072829;28;20117;-78
2023/03/05 08:42:32;;;;;;;3.43;1.20;;;;;;;1.51;83.99;100396.91;5048106;28;20605;-81
2023/03/05 08:44:59;;;;;;;5.33;1.50;;;;;;;1.59;86.42;100395.25;5057882;28;20037;-78
2023/03/05 08:47:26;;;;;;;7.73;1.77;;;;;;;1.50;84.80;100386.47;5065229;28;20040;-78
2023/03/05 08:49:54;;;;;;;5.10;1.80;;;;;;;1.54;84.74;100390.88;5031895;28;20517;-78
2023/03/05 08:52:21;;;;;;;2.43;1.10;;;;;;;1.55;85.31;100377.88;5063301;28;20461;-81
2023/03/05 08:54:48;;;;;;;3.20;1.20;;;;;;;1.58;85.71;100379.63;5082308;28;20896;-80
2023/03/05 08:57:15;;;;;;;3.30;1.30;;;;;;;1.61;87.07;100380.56;5052109;28;20066;-81
2023/03/05 08:59:41;;;;;;;3.93;1.73;;;;;;;1.68;86.87;100379.75;5071817;28;20090;-80
2023/03/05 09:02:11;;;;;;;6.47;1.70;;;;;;;1.78;86.68;100375.53;5085869;28;20056;-79
2023/03/05 09:04:38;;;;;;;5.00;1.90;;;;;;;1.88;84.36;100377.34;5069234;28;20044;-79
2023/03/05 09:07:07;;;;;;;5.00;1.63;;;;;;;1.77;84.50;100378.13;5100160;28;20093;-80
2023/03/05 09:09:35;;;;;;;10.60;1.70;;;;;;;1.86;85.59;100373.00;5099095;28;20032;-80
2023/03/05 09:12:02;;;;;;;7.87;2.03;;;;;;;1.94;81.71;100360.91;5053990;28;20044;-80
2023/03/05 09:14:29;;;;;;;4.63;1.30;;;;;;;2.02;83.27;100371.38;5067827;28;20097;-80
2023/03/05 09:16:57;;;;;;;4.27;1.33;;;;;;;2.04;81.85;100372.31;5055036;28;20048;-82
2023/03/05 09:19:27;;;;;;;5.50;1.30;;;;;;;1.96;80.67;100367.88;5056280;28;20028;-80
2023/03/05 09:21:54;;;;;;;3.43;1.20;;;;;;;2.09;81.90;100362.78;5085315;28;20040;-80
2023/03/05 09:24:22;;;;;;;5.70;1.40;;;;;;;2.22;78.39;100360.31;5056832;28;20036;-80
2023/03/05 09:26:49;;;;;;;3.37;1.20;;;;;;;2.40;77.43;100345.66;5069994;28;20039;-80
2023/03/05 09:29:23;;;;;;;4.97;1.15;;;;;;;2.56;74.26;100355.34;5071734;28;20040;-80
2023/03/05 09:31:50;;;;;;;3.57;1.33;;;;;;;2.74;76.71;100351.97;5085142;28;20033;-80
2023/03/05 09:34:17;;;;;;;4.67;1.53;;;;;;;2.31;71.28;100350.81;5068878;28;20056;-80
2023/03/05 09:36:44;;;;;;;5.40;1.47;;;;;;;2.62;74.04;100350.19;5069185;28;20047;-81
2023/03/05 09:39:11;;;;;;;1.80;1.00;;;;;;;2.55;71.95;100345.78;5072064;28;20040;-80
2023/03/05 09:42:02;;;;;;;4.13;1.30;;;;;;;2.56;67.95;100350.13;5053961;28;20090;-80
2023/03/05 09:44:41;;;;;;;5.60;1.27;;;;;;;2.54;68.98;100357.94;5056603;28;20043;-81
2023/03/05 09:47:32;;;;;;;3.93;1.07;;;;;;;2.45;67.39;100349.19;5086775;28;20446;-80
2023/03/05 09:50:02;;;;;;;2.87;1.47;;;;;;;2.14;69.68;100341.13;5085367;28;20643;-81
2023/03/05 09:52:38;;;;;;;5.00;1.13;;;;;;;2.15;72.76;100345.47;5097881;22;20028;-78
2023/03/05 09:55:22;;;;;;;3.87;1.30;;;;;;;1.96;70.74;100346.16;5037691;28;20050;-78
2023/03/05 09:57:51;;;;;;;6.50;1.45;;;;;;;2.10;72.66;100343.66;5022340;28;20032;-78
2023/03/05 10:00:28;;;;;;;2.80;1.10;;;;;;;2.12;71.12;100342.84;5057414;28;20042;-78
2023/03/05 10:02:58;;;;;;;4.13;1.00;;;;;;;1.79;71.02;100353.81;5051445;28;20045;-78
2023/03/05 10:05:35;;;;;;;2.53;1.17;;;;;;;1.82;71.09;100345.16;5030486;28;20039;-78
2023/03/05 10:08:03;;;;;;;1.57;1.03;;;;;;;1.82;73.54;100347.75;5014025;28;20448;-78
2023/03/05 10:10:40;;;;;;;3.03;1.10;;;;;;;1.78;73.08;100348.59;5029882;28;20029;-78
2023/03/05 10:13:21;;;;;;;3.87;1.10;;;;;;;1.80;74.40;100352.09;5047674;28;20051;-77
2023/03/05 10:16:03;;;;;;;4.27;1.43;;;;;;;1.77;78.14;100342.53;5017141;28;20045;-78
2023/03/05 10:19:01;;;;;;;1.80;1.00;;;;;;;1.64;75.51;100354.53;5030492;28;20052;-78
2023/03/05 10:22:06;;;;;;;3.50;1.33;;;;;;;1.59;76.71;100352.72;5028663;28;20040;-77
2023/03/05 10:24:41;;;;;;;3.45;0.80;;;;;;;1.39;75.87;100350.78;5030329;28;20072;-78
2023/03/05 10:27:14;;;;;;;2.97;1.10;;;;;;;1.52;78.63;100353.53;5046792;28;20040;-78
2023/03/05 10:30:06;;;;;;;36.07;15.43;;;;;;;1.34;76.89;100346.38;5027711;28;20040;-78
2023/03/05 10:32:45;;;;;;;4.80;1.70;;;;;;;1.20;77.73;100346.22;5066546;28;20041;-79
2023/03/05 10:35:53;;;;;;;5.23;1.53;;;;;;;1.35;79.00;100338.59;5036475;28;20120;-79
2023/03/05 10:38:52;;;;;;;3.07;0.97;;;;;;;1.38;76.38;100337.75;5055321;28;20032;-79
2023/03/05 10:42:01;;;;;;;4.97;1.80;;;;;;;1.24;80.49;100340.19;5028055;28;20037;-78
2023/03/05 10:44:37;;;;;;;6.70;1.30;;;;;;;1.22;79.59;100335.81;5049025;28;20041;-78
2023/03/05 10:47:14;;;;;;;2.60;1.03;;;;;;;1.17;79.53;100332.28;5011934;28;20043;-79
2023/03/05 10:49:52;;;;;;;3.30;0.83;;;;;;;1.23;81.15;100330.63;5024445;28;20112;-79
2023/03/05 10:52:27;;;;;;;3.40;1.10;;;;;;;1.44;78.56;100330.03;5036341;28;20040;-79
2023/03/05 10:54:54;;;;;;;5.43;1.30;;;;;;;1.47;79.86;100332.66;5030391;28;20535;-78
2023/03/05 10:57:30;;;;;;;4.40;1.30;;;;;;;1.47;81.60;100335.25;5013228;28;20033;-78
2023/03/05 11:00:00;;;;;;;1.87;0.70;;;;;;;1.34;78.96;100331.63;5025417;28;20038;-78
2023/03/05 11:02:27;;;;;;;2.67;0.90;;;;;;;1.23;80.79;100327.16;5033179;28;20526;-78
2023/03/05 11:04:54;;;;;;;1.90;1.17;;;;;;;1.41;79.55;100327.38;5015043;28;20074;-78
2023/03/05 11:07:23;;;;;;;2.00;1.20;;;;;;;1.40;78.86;100323.88;5026559;28;20040;-78
2023/03/05 11:10:03;;;;;;;2.63;1.37;;;;;;;1.54;77.60;100321.44;5047135;28;20029;-78
2023/03/05 11:12:36;;;;;;;3.80;1.50;;;;;;;1.56;79.21;100314.53;5047882;28;20137;-78
2023/03/05 11:15:08;;;;;;;1.57;0.90;;;;;;;1.60;79.46;100316.31;5027675;28;20048;-78
2023/03/05 11:17:47;;;;;;;2.20;1.13;;;;;;;1.52;78.87;100317.97;5030129;28;20675;-78
2023/03/05 11:20:35;;;;;;;2.13;1.00;;;;;;;1.70;80.54;100317.28;5009775;28;20047;-79
2023/03/05 11:23:22;;;;;;;4.67;1.50;;;;;;;1.83;79.87;100326.94;5031978;28;20045;-80
2023/03/05 11:26:02;;;;;;;2.67;1.60;;;;;;;1.76;78.45;100317.31;5020165;28;20036;-79
2023/03/05 11:28:33;;;;;;;2.77;1.13;;;;;;;1.73;81.01;100314.69;5031108;28;20040;-79
2023/03/05 11:31:03;;;;;;;3.33;1.20;;;;;;;1.79;76.21;100319.09;5052771;28;20763;-80
2023/03/05 11:33:30;;;;;;;4.60;1.40;;;;;;;1.87;76.92;100314.84;5034238;28;20052;-81
2023/03/05 11:36:28;;;;;;;5.57;1.83;;;;;;;1.54;74.09;100312.75;5017951;28;20502;-79
2023/03/05 11:38:58;;;;;;;2.13;1.10;;;;;;;1.71;76.44;100306.00;5014531;28;20049;-79
2023/03/05 11:41:41;;;;;;;1.50;0.97;;;;;;;1.85;75.84;100293.97;5039222;28;20052;-80
2023/03/05 11:44:14;;;;;;;2.73;1.30;;;;;;;2.04;74.63;100294.13;5048122;28;20044;-82